KPNC/PNC METAR and TAF weather

Enter ICAO airport designator
Station Type Date Time Source
KPNC METAR 2021/08/04 18:53 UTC NOAA

KPNC 041853Z AUTO 16004KT 10SM CLR 29/17 A3009 RMK AO2 SLP178 T02940167 $


Station Type Date Time Source
KPNC Decoded METAR 2021/08/04 18:53 UTC NOAA

PONCA CITY MUNICIPAL AIRPORT, OK, United States (KPNC) 36-44N 97-06W 308M
Aug 04, 2021 - 02:53 PM EDT / 2021.08.04 1853 UTC
Wind: from the SSE (160 degrees) at 5 MPH (4 KT):0
Visibility: 10 mile(s):0
Sky conditions: clear
Temperature: 84.9 F (29.4 C)
Dew Point: 62.1 F (16.7 C)
Relative Humidity: 46%
Pressure (altimeter): 30.09 in. Hg (1018 hPa)
ob: KPNC 041853Z AUTO 16004KT 10SM CLR 29/17 A3009 RMK AO2 SLP178 T02940167
cycle: 19

Station Type Date Time Source
KPNC TAF 2021/08/04 18:42 UTC NOAA

TAF KPNC 041739Z 0418/0518 12003KT P6SM SCT050 SCT250
FM051200 18008KT P6SM BKN100

Example: see airport list